Sebastopol, Texas
Current Conditions -  °F | °C
As of 6:55 AM on Friday 19 Dec 2014 (Local Time) from KDKR Reporting Station
Light Rain Light Rain  
Wind Chill: 54°   Ceiling: 600
Heat Index: 54°   Visibility: NA
Dew Point: 52°   Wind: 7mph
Humidity: 94%   Direction: 40°NE
Pressure: 30.12"   Gusts: NA
Location:  30.9905°N, 95.3368°W
Report Text: KDKR 191255Z AUTO 04006KT -RA OVC006 12/11 A3012 RMK AO2 LTG DSNT S P0001
Loading
Personal Weather Stations






























Interactive Weather Map New forecast layout! Learn more

10-Day Weather Forecast

Advertisements
Track Severe Weather on mobile